METAR EVRA 280450Z 17012KT 9999 OVC004 01/00 Q1004 R18/290195 NOSIG =

NOTAMs

Controllers Online

PositionControllerOnline
No controllers currently online

Booked ATC Today

* Times are UTC

The time is now

UTC: 

Local: 

Latvia vACC on twitter